createdAt,value
2023-01-11T00:00:40.988Z,3.90
2023-01-11T00:05:43.007Z,3.77
2023-01-11T00:10:43.739Z,3.94
2023-01-11T00:15:44.853Z,3.85
2023-01-11T00:20:45.838Z,3.84
2023-01-11T00:25:46.627Z,3.96
2023-01-11T00:30:48.678Z,3.90
2023-01-11T00:35:52.402Z,3.96
2023-01-11T00:40:53.115Z,3.89
2023-01-11T00:46:12.201Z,3.89
2023-01-11T00:51:12.988Z,3.88
2023-01-11T00:56:13.752Z,3.91
2023-01-11T01:01:14.514Z,4.08
2023-01-11T01:06:15.320Z,4.02
2023-01-11T01:11:16.114Z,3.93
2023-01-11T01:16:18.398Z,3.99
2023-01-11T01:21:19.113Z,4.15
2023-01-11T01:26:20.305Z,4.11
2023-01-11T01:31:21.095Z,4.33
2023-01-11T01:36:21.887Z,4.26
2023-01-11T01:41:22.617Z,4.35
2023-01-11T01:46:27.643Z,4.29
2023-01-11T01:51:39.065Z,4.36
2023-01-11T01:56:48.469Z,4.41
2023-01-11T02:01:51.441Z,4.38
2023-01-11T02:06:57.470Z,4.43
2023-01-11T02:11:59.922Z,4.48
2023-01-11T02:17:00.805Z,4.45
2023-01-11T02:22:48.260Z,4.54
2023-01-11T02:28:09.017Z,4.48
2023-01-11T02:33:34.540Z,4.51
2023-01-11T02:38:45.454Z,4.53
2023-01-11T02:44:19.827Z,4.59
2023-01-11T02:49:33.126Z,4.55
2023-01-11T02:54:38.004Z,4.51
2023-01-11T02:59:39.958Z,4.55
2023-01-11T03:04:40.688Z,4.60
2023-01-11T03:10:25.174Z,4.62
2023-01-11T03:16:54.099Z,4.68
2023-01-11T03:23:34.742Z,4.75
2023-01-11T03:31:30.242Z,4.83
2023-01-11T03:36:39.774Z,4.99
2023-01-11T03:41:42.730Z,5.18
2023-01-11T03:46:47.877Z,5.23
2023-01-11T03:51:50.814Z,5.32
2023-01-11T03:57:00.988Z,5.35
2023-01-11T04:02:01.856Z,5.41
2023-01-11T04:07:02.602Z,5.58
2023-01-11T04:12:03.640Z,5.47
2023-01-11T04:17:04.741Z,5.50
2023-01-11T04:22:05.532Z,5.53
2023-01-11T04:27:06.835Z,5.65
2023-01-11T04:32:07.577Z,5.64
2023-01-11T04:37:08.731Z,5.64
2023-01-11T04:42:20.397Z,5.84
2023-01-11T04:47:23.499Z,5.91
2023-01-11T04:52:24.311Z,6.05
2023-01-11T04:57:25.163Z,6.07
2023-01-11T05:02:25.975Z,6.09
2023-01-11T05:07:26.743Z,6.24
2023-01-11T05:12:27.464Z,6.34
2023-01-11T05:17:28.281Z,6.37
2023-01-11T05:22:29.077Z,6.40
2023-01-11T05:27:29.959Z,6.38
2023-01-11T05:32:30.707Z,6.43
2023-01-11T05:37:31.467Z,6.48
2023-01-11T05:42:32.192Z,6.55
2023-01-11T05:47:32.961Z,6.66
2023-01-11T05:52:33.720Z,6.66
2023-01-11T05:57:34.540Z,6.72
2023-01-11T06:02:35.432Z,6.76
2023-01-11T06:07:36.662Z,6.77
2023-01-11T06:12:37.440Z,6.78
2023-01-11T06:17:38.492Z,6.80
2023-01-11T06:22:39.261Z,6.84
2023-01-11T06:27:40.337Z,6.88
2023-01-11T06:32:41.086Z,6.84
2023-01-11T06:37:41.854Z,6.89
2023-01-11T06:42:42.636Z,6.84
2023-01-11T06:47:43.427Z,6.86
2023-01-11T06:52:52.604Z,6.80
2023-01-11T06:57:54.276Z,6.90
2023-01-11T07:02:55.083Z,6.87
2023-01-11T07:07:55.860Z,6.88
2023-01-11T07:12:56.758Z,6.91
2023-01-11T07:17:59.395Z,6.93
2023-01-11T07:23:00.944Z,6.88
2023-01-11T07:28:04.733Z,6.91
2023-01-11T07:33:06.808Z,6.96
2023-01-11T07:38:09.422Z,7.07
2023-01-11T07:43:15.292Z,6.98
2023-01-11T07:48:25.617Z,7.02
2023-01-11T07:53:26.635Z,7.09
2023-01-11T07:58:27.613Z,7.07
2023-01-11T08:03:28.431Z,7.05
2023-01-11T08:08:29.230Z,7.09
2023-01-11T08:13:48.673Z,7.11
2023-01-11T08:18:55.512Z,7.14
2023-01-11T08:23:58.209Z,7.12
2023-01-11T08:28:59.368Z,7.11
2023-01-11T08:34:00.138Z,7.16
2023-01-11T08:39:01.222Z,7.16
2023-01-11T08:44:01.985Z,7.20
2023-01-11T08:49:03.805Z,7.22
2023-01-11T08:54:08.792Z,7.22
2023-01-11T08:59:10.533Z,7.21
2023-01-11T09:04:23.869Z,7.27
2023-01-11T09:09:25.909Z,7.29
2023-01-11T09:14:28.290Z,7.39
2023-01-11T09:19:29.131Z,7.31
2023-01-11T09:24:30.031Z,7.33
2023-01-11T09:29:31.288Z,7.36
2023-01-11T09:34:32.745Z,7.40
2023-01-11T09:39:34.345Z,7.46
2023-01-11T09:44:49.118Z,7.52
2023-01-11T09:49:55.508Z,7.57
2023-01-11T09:54:57.951Z,7.56
2023-01-11T10:00:22.463Z,7.62
2023-01-11T10:05:50.669Z,7.62
2023-01-11T10:19:32.121Z,7.79
2023-01-11T10:24:42.461Z,7.79
2023-01-11T10:31:17.259Z,7.83
2023-01-11T10:36:39.258Z,7.92
2023-01-11T10:42:04.897Z,8.11
2023-01-11T10:47:12.962Z,8.12
2023-01-11T10:52:34.212Z,8.13
2023-01-11T10:58:01.513Z,8.20
2023-01-11T11:03:36.279Z,8.38
2023-01-11T11:09:40.161Z,8.77
2023-01-11T11:15:10.574Z,9.15
2023-01-11T11:20:17.087Z,9.15
2023-01-11T11:25:22.258Z,9.02
2023-01-11T11:30:37.312Z,8.92
2023-01-11T11:35:41.485Z,8.92
2023-01-11T11:40:42.276Z,8.80
2023-01-11T11:45:52.501Z,8.70
2023-01-11T11:50:56.552Z,8.56
2023-01-11T11:55:58.367Z,8.55
2023-01-11T12:00:59.419Z,8.45
2023-01-11T12:06:03.361Z,8.25
2023-01-11T12:11:07.310Z,8.15
2023-01-11T12:16:22.375Z,8.16
2023-01-11T12:21:26.264Z,8.12
2023-01-11T12:26:35.232Z,8.13
2023-01-11T12:33:37.384Z,8.12
2023-01-11T12:39:11.310Z,8.13
2023-01-11T12:44:57.367Z,8.10
2023-01-11T12:50:14.033Z,8.09
2023-01-11T12:56:25.373Z,8.17
2023-01-11T13:03:28.815Z,7.93
2023-01-11T13:08:59.248Z,7.98
2023-01-11T13:14:37.418Z,7.84
2023-01-11T13:19:51.731Z,7.90
2023-01-11T13:24:52.438Z,7.78
2023-01-11T13:29:59.793Z,7.84
2023-01-11T13:35:13.728Z,7.86
2023-01-11T13:40:37.947Z,7.85
2023-01-11T13:45:51.890Z,7.82
2023-01-11T13:51:00.962Z,7.82
2023-01-11T13:56:40.701Z,7.76
2023-01-11T14:01:57.362Z,7.69
2023-01-11T14:10:20.031Z,7.69
2023-01-11T14:16:09.594Z,7.63
2023-01-11T14:21:36.267Z,7.59
2023-01-11T14:28:29.834Z,7.58
2023-01-11T14:34:31.851Z,7.56
2023-01-11T14:39:50.509Z,7.45
2023-01-11T14:45:25.309Z,7.50
2023-01-11T14:52:07.393Z,7.30
2023-01-11T14:57:44.066Z,7.27
2023-01-11T15:04:20.007Z,7.27
2023-01-11T15:09:50.192Z,7.25
2023-01-11T15:15:01.603Z,7.31
2023-01-11T15:20:20.151Z,7.24
2023-01-11T15:25:26.812Z,7.09
2023-01-11T15:30:51.947Z,7.48
2023-01-11T15:36:10.948Z,7.67
2023-01-11T15:42:47.825Z,7.64
2023-01-11T15:49:59.798Z,7.40
2023-01-11T15:55:47.683Z,6.93
2023-01-11T16:04:15.016Z,6.82
2023-01-11T16:10:46.657Z,6.79
2023-01-11T16:16:15.209Z,6.61
2023-01-11T16:21:25.445Z,6.53
2023-01-11T16:26:26.396Z,6.63
2023-01-11T16:31:51.967Z,6.43
2023-01-11T16:36:52.828Z,6.42
2023-01-11T16:42:05.332Z,6.32
2023-01-11T16:47:24.391Z,6.38
2023-01-11T16:52:37.240Z,6.27
2023-01-11T16:57:43.484Z,6.25
2023-01-11T17:02:48.057Z,6.17
2023-01-11T17:07:49.078Z,6.28
2023-01-11T17:15:57.374Z,6.18
2023-01-11T17:20:58.268Z,6.08
2023-01-11T17:26:00.268Z,5.97
2023-01-11T17:31:01.782Z,5.98
2023-01-11T17:36:03.292Z,5.87
2023-01-11T17:45:11.920Z,5.68
2023-01-11T17:51:13.994Z,5.62
2023-01-11T17:56:44.704Z,5.55
2023-01-11T18:01:50.588Z,5.40
2023-01-11T18:07:04.416Z,5.53
2023-01-11T18:12:21.172Z,5.61
2023-01-11T18:17:36.786Z,5.66
2023-01-11T18:22:39.930Z,5.53
2023-01-11T18:27:45.613Z,5.48
2023-01-11T18:32:46.536Z,5.50
2023-01-11T18:37:47.786Z,5.52
2023-01-11T18:42:52.597Z,5.47
2023-01-11T18:47:53.439Z,5.48
2023-01-11T18:52:54.183Z,5.52
2023-01-11T18:57:57.446Z,5.60
2023-01-11T19:02:59.528Z,5.59
2023-01-11T19:08:00.389Z,5.64
2023-01-11T19:13:01.137Z,5.66
2023-01-11T19:18:02.828Z,5.65
2023-01-11T19:23:03.581Z,5.65
2023-01-11T19:28:05.145Z,5.54
2023-01-11T19:33:05.863Z,5.49
2023-01-11T19:38:06.959Z,5.47
2023-01-11T19:43:07.749Z,5.39
2023-01-11T19:48:08.543Z,5.46
2023-01-11T19:53:09.261Z,5.39
2023-01-11T19:58:10.049Z,5.34
2023-01-11T20:03:10.764Z,5.20
2023-01-11T20:08:12.058Z,5.21
2023-01-11T20:13:12.767Z,5.26
2023-01-11T20:18:13.556Z,5.39
2023-01-11T20:23:14.260Z,5.38
2023-01-11T20:28:15.269Z,5.45
2023-01-11T20:33:16.001Z,5.46
2023-01-11T20:38:17.315Z,5.49
2023-01-11T20:43:18.827Z,5.45
2023-01-11T20:48:19.606Z,5.52
2023-01-11T20:53:20.311Z,5.48
2023-01-11T20:58:21.429Z,5.50
2023-01-11T21:03:23.346Z,5.43
2023-01-11T21:08:24.724Z,5.46
2023-01-11T21:13:25.507Z,5.44
2023-01-11T21:18:26.246Z,5.34
2023-01-11T21:23:27.003Z,5.35
2023-01-11T21:28:27.758Z,5.39
2023-01-11T21:33:28.759Z,5.49
2023-01-11T21:38:31.676Z,5.57
2023-01-11T21:43:33.141Z,5.52
2023-01-11T21:48:33.901Z,5.60
2023-01-11T21:53:35.301Z,5.56
2023-01-11T21:58:36.077Z,5.56
2023-01-11T22:03:36.974Z,5.64
2023-01-11T22:08:39.349Z,5.67
2023-01-11T22:13:40.567Z,5.57
2023-01-11T22:18:42.404Z,5.56
2023-01-11T22:23:44.743Z,5.59
2023-01-11T22:29:05.438Z,5.66
2023-01-11T22:34:06.271Z,5.66
2023-01-11T22:39:07.394Z,5.74
2023-01-11T22:44:08.468Z,5.75
2023-01-11T22:49:10.085Z,5.78
2023-01-11T22:54:11.049Z,5.76
2023-01-11T22:59:11.782Z,5.75
2023-01-11T23:04:13.165Z,5.73
2023-01-11T23:09:16.342Z,5.74
2023-01-11T23:14:19.214Z,5.78
2023-01-11T23:19:20.059Z,5.74
2023-01-11T23:24:21.373Z,5.74
2023-01-11T23:29:22.144Z,5.78
2023-01-11T23:34:22.971Z,5.78
2023-01-11T23:39:24.024Z,5.76
2023-01-11T23:44:24.869Z,5.78
2023-01-11T23:49:26.243Z,5.75
2023-01-11T23:54:32.286Z,5.72
2023-01-11T23:59:33.099Z,5.68
